Time;durP1;ratioP1;P1;durP2;ratioP2;P2;SDS_P1;SDS_P2;PMS_P1;PMS_P2;Temp;Humidity;BMP_temperature;BMP_pressure;BME280_temperature;BME280_humidity;BME280_pressure;Samples;Min_cycle;Max_cycle;Signal;HPM_P1;HPM_P2
2022/10/25 00:00:36;;;;;;;;;;;13.60;82.80;;;;;;5023217;28;20467;-79
2022/10/25 00:03:01;;;;;;;;;;;13.60;82.80;;;;;;5027178;28;20305;-78
2022/10/25 00:05:27;;;;;;;;;;;13.60;82.80;;;;;;5044385;28;20011;-79
2022/10/25 00:07:52;;;;;;;;;;;13.50;82.80;;;;;;5042121;28;19924;-79
2022/10/25 00:10:18;;;;;;;;;;;13.50;82.80;;;;;;5029652;28;20082;-79
2022/10/25 00:12:43;;;;;;;;;;;13.50;82.80;;;;;;5045888;28;19959;-79
2022/10/25 00:15:09;;;;;;;;;;;13.50;82.80;;;;;;5045491;28;19925;-78
2022/10/25 00:17:35;;;;;;;;;;;13.50;82.90;;;;;;5047656;28;19917;-79
2022/10/25 00:20:00;;;;;;;;;;;13.40;82.80;;;;;;5041095;28;20660;-80
2022/10/25 00:22:29;;;;;;;;;;;13.40;82.80;;;;;;5042974;28;20003;-79
2022/10/25 00:24:54;;;;;;;;;;;13.40;82.90;;;;;;5039624;28;19916;-79
2022/10/25 00:27:20;;;;;;;;;;;13.40;82.90;;;;;;5041877;28;19920;-78
2022/10/25 00:29:45;;;;;;;;;;;13.30;82.80;;;;;;5043343;28;19921;-79
2022/10/25 00:32:11;;;;;;;;;;;13.30;82.90;;;;;;5031154;28;19939;-78
2022/10/25 00:34:38;;;;;;;;;;;13.30;82.90;;;;;;5056228;28;19921;-79
2022/10/25 00:37:04;;;;;;;;;;;13.30;82.90;;;;;;5058001;28;19920;-79
2022/10/25 00:39:29;;;;;;;;;;;13.20;82.80;;;;;;5026130;28;19931;-79
2022/10/25 00:41:56;;;;;;;;;;;13.20;82.90;;;;;;5039315;28;19966;-78
2022/10/25 00:44:39;;;;;;;;;;;13.20;83.70;;;;;;5043546;28;19917;-80
2022/10/25 00:47:14;;;;;;;;;;;13.20;83.00;;;;;;5037492;28;20435;-79
2022/10/25 00:49:40;;;;;;;;;;;13.10;82.90;;;;;;5039353;28;19939;-79
2022/10/25 00:52:05;;;;;;;;;;;13.10;83.00;;;;;;5039369;28;20611;-79
2022/10/25 00:54:35;;;;;;;;;;;13.10;83.00;;;;;;5041300;28;19967;-79
2022/10/25 00:57:02;;;;;;;;;;;13.10;83.10;;;;;;5043354;28;19923;-79
2022/10/25 00:59:27;;;;;;;;;;;13.00;83.00;;;;;;5042546;28;19921;-79
2022/10/25 01:01:53;;;;;;;;;;;13.00;83.00;;;;;;5041858;28;20002;-78
2022/10/25 01:04:18;;;;;;;;;;;13.00;83.00;;;;;;5057673;28;19933;-78
2022/10/25 01:06:48;;;;;;;;;;;13.00;83.00;;;;;;5045078;28;19921;-79
2022/10/25 01:09:14;;;;;;;;;;;12.90;83.00;;;;;;5058095;28;19948;-80
2022/10/25 01:11:41;;;;;;;;;;;12.90;83.10;;;;;;5059240;28;19967;-79
2022/10/25 01:14:08;;;;;;;;;;;12.90;83.10;;;;;;5042351;28;19924;-79
2022/10/25 01:16:34;;;;;;;;;;;12.80;83.20;;;;;;5060700;28;19920;-78
2022/10/25 01:19:09;;;;;;;;;;;12.80;83.10;;;;;;5043519;28;19920;-78
2022/10/25 01:21:47;;;;;;;;;;;12.80;83.20;;;;;;5047232;28;20046;-79
2022/10/25 01:24:16;;;;;;;;;;;12.70;83.10;;;;;;5041846;28;20021;-79
2022/10/25 01:27:00;;;;;;;;;;;12.70;83.10;;;;;;5044171;28;20378;-79
2022/10/25 01:29:55;;;;;;;;;;;12.70;83.10;;;;;;5038275;28;19927;-78
2022/10/25 01:32:22;;;;;;;;;;;12.70;83.20;;;;;;5028158;28;19920;-78
2022/10/25 01:35:11;;;;;;;;;;;12.60;83.10;;;;;;5048219;28;19999;-79
2022/10/25 01:37:41;;;;;;;;;;;12.60;83.20;;;;;;5034819;28;20022;-78
2022/10/25 01:40:25;;;;;;;;;;;12.60;83.20;;;;;;5043771;28;19929;-79
2022/10/25 01:42:54;;;;;;;;;;;12.50;83.20;;;;;;5050857;28;19968;-80
2022/10/25 01:45:38;;;;;;;;;;;12.50;83.30;;;;;;5065053;28;19925;-80
2022/10/25 01:48:06;;;;;;;;;;;12.50;83.30;;;;;;5046092;28;19917;-79
2022/10/25 01:50:31;;;;;;;;;;;12.50;83.40;;;;;;5064071;28;19959;-79
2022/10/25 01:52:57;;;;;;;;;;;12.40;83.40;;;;;;5044579;28;19921;-80
2022/10/25 01:55:33;;;;;;;;;;;12.50;83.40;;;;;;5045896;28;19921;-78
2022/10/25 01:58:13;;;;;;;;;;;12.40;83.40;;;;;;5044313;28;19920;-80
2022/10/25 02:00:59;;;;;;;;;;;12.40;83.40;;;;;;5044528;28;19933;-79
2022/10/25 02:03:32;;;;;;;;;;;12.40;83.40;;;;;;5046567;28;19927;-79
2022/10/25 02:06:16;;;;;;;;;;;12.40;83.40;;;;;;5047976;28;20488;-80
2022/10/25 02:08:48;;;;;;;;;;;12.40;83.40;;;;;;5042856;28;19927;-80
2022/10/25 02:11:29;;;;;;;;;;;12.30;83.40;;;;;;5046590;28;19928;-79
2022/10/25 02:13:58;;;;;;;;;;;12.40;83.40;;;;;;5044216;28;19923;-79
2022/10/25 02:16:24;;;;;;;;;;;12.30;83.40;;;;;;5045080;28;19923;-79
2022/10/25 02:18:51;;;;;;;;;;;12.30;83.40;;;;;;5059340;28;19994;-79
2022/10/25 02:21:16;;;;;;;;;;;12.30;83.40;;;;;;5043912;28;19932;-79
2022/10/25 02:23:42;;;;;;;;;;;12.20;83.40;;;;;;5046570;28;20236;-79
2022/10/25 02:26:08;;;;;;;;;;;12.20;83.40;;;;;;5043612;28;19925;-80
2022/10/25 02:28:34;;;;;;;;;;;12.20;83.40;;;;;;5030618;28;19932;-80
2022/10/25 02:30:59;;;;;;;;;;;12.20;83.40;;;;;;5044583;28;19964;-77
2022/10/25 02:33:25;;;;;;;;;;;12.20;83.50;;;;;;5042561;28;19936;-79
2022/10/25 02:36:09;;;;;;;;;;;12.10;83.40;;;;;;5041037;28;20014;-80
2022/10/25 02:38:35;;;;;;;;;;;12.10;83.50;;;;;;5041709;28;19921;-79
2022/10/25 02:41:01;;;;;;;;;;;12.10;83.50;;;;;;5041533;28;19928;-78
2022/10/25 02:43:26;;;;;;;;;;;12.10;83.50;;;;;;5059580;28;20007;-80
2022/10/25 02:45:52;;;;;;;;;;;12.00;83.50;;;;;;5038993;28;20006;-78
2022/10/25 02:48:17;;;;;;;;;;;12.00;83.50;;;;;;5037449;28;19924;-78
2022/10/25 02:50:43;;;;;;;;;;;12.00;83.50;;;;;;5038814;28;19921;-79
2022/10/25 02:53:08;;;;;;;;;;;11.90;83.60;;;;;;5019509;28;19955;-79
2022/10/25 02:55:34;;;;;;;;;;;11.90;83.60;;;;;;5045717;28;19917;-78
2022/10/25 02:57:59;;;;;;;;;;;11.90;83.60;;;;;;5043375;28;20238;-79
2022/10/25 03:00:25;;;;;;;;;;;11.80;83.60;;;;;;5046060;28;20028;-80
2022/10/25 03:02:50;;;;;;;;;;;11.80;83.60;;;;;;5043926;28;19917;-79
2022/10/25 03:05:16;;;;;;;;;;;11.80;83.60;;;;;;5042541;28;19917;-79
2022/10/25 03:07:41;;;;;;;;;;;11.70;83.60;;;;;;5037676;28;19917;-80
2022/10/25 03:10:07;;;;;;;;;;;11.70;83.60;;;;;;5055887;28;20274;-79
2022/10/25 03:12:32;;;;;;;;;;;11.70;83.70;;;;;;5041241;28;19973;-79
2022/10/25 03:14:58;;;;;;;;;;;11.60;83.60;;;;;;5040750;28;19970;-79
2022/10/25 03:17:23;;;;;;;;;;;11.60;83.70;;;;;;5037442;28;19921;-77
2022/10/25 03:19:49;;;;;;;;;;;11.60;83.80;;;;;;5029203;28;20067;-78
2022/10/25 03:22:14;;;;;;;;;;;11.60;83.90;;;;;;5053493;28;19956;-78
2022/10/25 03:24:40;;;;;;;;;;;11.50;83.80;;;;;;5037647;28;19921;-79
2022/10/25 03:27:05;;;;;;;;;;;11.50;83.90;;;;;;5018401;28;20439;-79
2022/10/25 03:29:31;;;;;;;;;;;11.50;83.90;;;;;;5047162;28;19944;-79
2022/10/25 03:31:56;;;;;;;;;;;11.40;83.90;;;;;;5038407;28;20007;-78
2022/10/25 03:34:21;;;;;;;;;;;11.40;83.90;;;;;;5038149;28;19925;-79
2022/10/25 03:36:47;;;;;;;;;;;11.40;84.40;;;;;;5050676;28;20393;-79
2022/10/25 03:39:12;;;;;;;;;;;11.40;84.00;;;;;;5044901;28;19933;-80
2022/10/25 03:41:38;;;;;;;;;;;11.40;84.00;;;;;;5042189;28;20035;-78
2022/10/25 03:44:03;;;;;;;;;;;11.40;84.00;;;;;;5056587;28;19943;-78
2022/10/25 03:46:29;;;;;;;;;;;11.30;84.00;;;;;;5044930;28;19917;-79
2022/10/25 03:48:54;;;;;;;;;;;11.30;84.00;;;;;;5038921;28;19944;-78
2022/10/25 03:51:20;;;;;;;;;;;11.30;84.10;;;;;;5040670;28;19917;-79
2022/10/25 03:53:45;;;;;;;;;;;11.30;84.10;;;;;;5038612;28;19959;-79
2022/10/25 03:56:11;;;;;;;;;;;11.30;84.10;;;;;;5036151;28;19916;-78
2022/10/25 03:58:36;;;;;;;;;;;11.20;84.10;;;;;;5042726;28;20575;-79
2022/10/25 04:01:02;;;;;;;;;;;11.20;84.10;;;;;;5041377;28;19932;-78
2022/10/25 04:03:27;;;;;;;;;;;11.20;84.20;;;;;;5039153;28;19917;-79
2022/10/25 04:05:53;;;;;;;;;;;11.20;84.20;;;;;;5042062;28;20317;-77
2022/10/25 04:08:18;;;;;;;;;;;11.20;84.20;;;;;;5041278;28;19925;-79
2022/10/25 04:10:44;;;;;;;;;;;11.20;84.20;;;;;;5045109;28;20281;-78
2022/10/25 04:13:09;;;;;;;;;;;11.20;84.20;;;;;;5027666;28;19917;-79
2022/10/25 04:15:36;;;;;;;;;;;11.20;84.20;;;;;;5059116;28;20006;-79
2022/10/25 04:18:01;;;;;;;;;;;11.10;84.10;;;;;;5041139;28;19924;-78
2022/10/25 04:20:27;;;;;;;;;;;11.10;84.20;;;;;;5040112;28;19917;-79
2022/10/25 04:22:53;;;;;;;;;;;11.10;84.20;;;;;;5036951;28;19921;-79
2022/10/25 04:25:19;;;;;;;;;;;11.10;84.30;;;;;;5037455;28;19928;-78
2022/10/25 04:27:44;;;;;;;;;;;11.00;84.30;;;;;;5038071;28;19924;-79
2022/10/25 04:30:10;;;;;;;;;;;11.00;84.30;;;;;;5039846;28;19917;-79
2022/10/25 04:32:35;;;;;;;;;;;11.00;84.30;;;;;;5044069;28;20000;-81
2022/10/25 04:35:06;;;;;;;;;;;10.90;84.30;;;;;;5060465;28;20395;-79
2022/10/25 04:37:32;;;;;;;;;;;11.00;84.40;;;;;;5047488;28;19936;-78
2022/10/25 04:39:57;;;;;;;;;;;10.90;84.40;;;;;;5034017;28;19921;-79
2022/10/25 04:42:23;;;;;;;;;;;10.90;84.50;;;;;;5043986;28;19922;-80
2022/10/25 04:44:48;;;;;;;;;;;10.90;84.60;;;;;;5043673;28;20309;-79
2022/10/25 04:47:14;;;;;;;;;;;10.90;84.50;;;;;;5042278;28;19963;-79
2022/10/25 04:49:39;;;;;;;;;;;10.90;84.50;;;;;;5041327;28;19916;-79
2022/10/25 04:52:05;;;;;;;;;;;10.90;84.50;;;;;;5058766;28;19966;-80
2022/10/25 04:54:30;;;;;;;;;;;10.90;84.50;;;;;;5024934;28;19921;-79
2022/10/25 04:56:56;;;;;;;;;;;10.90;84.50;;;;;;5055541;28;19917;-79
2022/10/25 04:59:21;;;;;;;;;;;10.90;84.50;;;;;;5045741;28;19928;-80
2022/10/25 05:01:47;;;;;;;;;;;10.90;84.50;;;;;;5026727;28;19921;-79
2022/10/25 05:04:12;;;;;;;;;;;10.80;84.40;;;;;;5045077;28;19955;-78
2022/10/25 05:06:38;;;;;;;;;;;10.90;84.50;;;;;;5041577;28;19917;-79
2022/10/25 05:09:03;;;;;;;;;;;10.80;84.50;;;;;;5036357;28;20558;-78
2022/10/25 05:11:29;;;;;;;;;;;10.80;84.60;;;;;;5056047;28;20424;-80
2022/10/25 05:13:55;;;;;;;;;;;10.80;84.50;;;;;;5044182;28;20432;-77
2022/10/25 05:16:22;;;;;;;;;;;10.90;84.70;;;;;;5042650;28;20297;-79
2022/10/25 05:18:48;;;;;;;;;;;10.80;84.60;;;;;;5049803;28;20590;-79
2022/10/25 05:21:14;;;;;;;;;;;10.80;84.60;;;;;;5038757;28;19925;-81
2022/10/25 05:23:39;;;;;;;;;;;10.80;84.60;;;;;;5041682;28;19923;-79
2022/10/25 05:26:08;;;;;;;;;;;10.80;84.60;;;;;;5039829;28;19921;-78
2022/10/25 05:28:34;;;;;;;;;;;10.80;84.60;;;;;;5037989;28;19931;-80
2022/10/25 05:31:05;;;;;;;;;;;10.80;84.60;;;;;;5038512;28;20388;-79
2022/10/25 05:33:31;;;;;;;;;;;10.80;84.60;;;;;;5038545;28;20585;-80
2022/10/25 05:35:58;;;;;;;;;;;10.80;84.60;;;;;;5043123;28;19917;-79
2022/10/25 05:38:23;;;;;;;;;;;10.80;85.30;;;;;;5037854;28;20484;-79
2022/10/25 05:40:52;;;;;;;;;;;10.80;84.50;;;;;;5037436;28;19927;-80
2022/10/25 05:43:18;;;;;;;;;;;10.80;84.60;;;;;;5039707;28;20425;-80
2022/10/25 05:45:43;;;;;;;;;;;10.80;84.60;;;;;;5055400;28;19959;-79
2022/10/25 05:48:09;;;;;;;;;;;10.80;84.60;;;;;;5060245;28;19924;-75
2022/10/25 05:50:34;;;;;;;;;;;10.80;84.60;;;;;;5037804;28;19917;-79
2022/10/25 05:53:00;;;;;;;;;;;10.80;84.60;;;;;;5045148;28;20297;-78
2022/10/25 05:55:25;;;;;;;;;;;10.80;84.60;;;;;;5056824;28;19944;-79
2022/10/25 05:57:52;;;;;;;;;;;10.80;84.60;;;;;;5044415;28;19921;-81
2022/10/25 06:00:17;;;;;;;;;;;10.70;84.60;;;;;;5054265;28;19929;-79
2022/10/25 06:02:43;;;;;;;;;;;10.70;84.60;;;;;;5040664;28;20020;-78
2022/10/25 06:05:08;;;;;;;;;;;10.70;84.60;;;;;;5039565;28;19974;-79
2022/10/25 06:07:34;;;;;;;;;;;10.70;84.60;;;;;;5058375;28;19921;-80
2022/10/25 06:09:59;;;;;;;;;;;10.70;84.70;;;;;;5042305;28;19917;-79
2022/10/25 06:12:25;;;;;;;;;;;10.70;84.60;;;;;;5042537;28;19917;-79
2022/10/25 06:14:50;;;;;;;;;;;10.70;84.70;;;;;;5045691;28;20305;-80
2022/10/25 06:17:15;;;;;;;;;;;10.70;84.70;;;;;;5038802;28;19921;-78
2022/10/25 06:19:41;;;;;;;;;;;10.70;84.70;;;;;;5041577;28;20339;-79
2022/10/25 06:22:07;;;;;;;;;;;10.80;84.70;;;;;;5044741;28;19917;-78
2022/10/25 06:24:32;;;;;;;;;;;10.70;84.60;;;;;;5045362;28;20497;-79
2022/10/25 06:26:58;;;;;;;;;;;10.80;84.70;;;;;;5039256;28;19921;-79
2022/10/25 06:29:23;;;;;;;;;;;10.80;84.70;;;;;;5040552;28;19925;-80
2022/10/25 06:31:48;;;;;;;;;;;10.70;84.60;;;;;;5024031;28;19952;-79
2022/10/25 06:34:14;;;;;;;;;;;10.80;84.70;;;;;;5040080;28;19924;-79
2022/10/25 06:36:39;;;;;;;;;;;10.80;84.70;;;;;;5059534;28;19966;-78
2022/10/25 06:39:05;;;;;;;;;;;10.80;84.70;;;;;;5043743;28;20543;-79
2022/10/25 06:41:30;;;;;;;;;;;10.80;84.70;;;;;;5032954;28;19966;-79
2022/10/25 06:43:57;;;;;;;;;;;10.90;84.70;;;;;;5036676;28;19925;-79
2022/10/25 06:46:23;;;;;;;;;;;10.90;84.70;;;;;;5036608;28;19931;-79
2022/10/25 06:48:49;;;;;;;;;;;10.80;84.60;;;;;;5036613;28;19996;-79
2022/10/25 06:51:15;;;;;;;;;;;10.90;84.60;;;;;;5042422;28;20060;-79
2022/10/25 06:53:40;;;;;;;;;;;10.90;84.70;;;;;;5026535;28;20006;-79
2022/10/25 06:56:06;;;;;;;;;;;10.90;84.70;;;;;;5044263;28;19963;-79
2022/10/25 06:58:32;;;;;;;;;;;10.90;84.70;;;;;;5060432;28;19952;-79
2022/10/25 07:01:03;;;;;;;;;;;11.00;84.70;;;;;;5040848;28;19925;-79
2022/10/25 07:03:33;;;;;;;;;;;11.00;84.60;;;;;;5053310;28;20383;-79
2022/10/25 07:06:03;;;;;;;;;;;11.00;84.60;;;;;;5046584;28;19928;-79
2022/10/25 07:08:29;;;;;;;;;;;11.10;84.70;;;;;;5037601;28;20410;-79
2022/10/25 07:10:55;;;;;;;;;;;11.10;84.60;;;;;;5043458;28;19916;-79
2022/10/25 07:13:20;;;;;;;;;;;11.20;84.70;;;;;;5053630;28;19917;-79
2022/10/25 07:15:46;;;;;;;;;;;11.30;84.60;;;;;;5046898;28;19918;-79
2022/10/25 07:18:11;;;;;;;;;;;11.40;84.60;;;;;;5045704;28;19968;-79
2022/10/25 07:20:37;;;;;;;;;;;11.50;84.50;;;;;;5038779;28;19924;-78
2022/10/25 07:23:02;;;;;;;;;;;11.60;84.50;;;;;;5026630;28;19921;-78
2022/10/25 07:25:27;;;;;;;;;;;11.60;84.40;;;;;;5044195;28;19976;-78
2022/10/25 07:27:53;;;;;;;;;;;11.70;84.40;;;;;;5049727;28;19924;-76
2022/10/25 07:30:18;;;;;;;;;;;11.80;84.40;;;;;;5055005;28;19921;-77
2022/10/25 07:32:44;;;;;;;;;;;11.80;84.30;;;;;;5073222;28;20395;-77
2022/10/25 07:35:10;;;;;;;;;;;11.90;84.30;;;;;;5054051;28;19927;-76
2022/10/25 07:37:35;;;;;;;;;;;12.00;84.30;;;;;;5065956;28;19936;-77
2022/10/25 07:40:01;;;;;;;;;;;12.10;84.20;;;;;;5045093;28;19936;-77
2022/10/25 07:42:26;;;;;;;;;;;12.10;84.10;;;;;;5039642;28;19917;-77
2022/10/25 07:44:52;;;;;;;;;;;12.20;84.10;;;;;;5040176;28;19928;-77
2022/10/25 07:47:17;;;;;;;;;;;12.30;84.10;;;;;;5044825;28;20055;-78
2022/10/25 07:49:43;;;;;;;;;;;12.30;84.00;;;;;;5050087;28;19921;-78
2022/10/25 07:52:10;;;;;;;;;;;12.40;84.00;;;;;;5046887;28;19948;-77
2022/10/25 07:54:35;;;;;;;;;;;12.50;83.90;;;;;;5045752;28;20054;-78
2022/10/25 07:57:01;;;;;;;;;;;12.60;83.90;;;;;;5054376;28;20360;-77
2022/10/25 07:59:26;;;;;;;;;;;12.60;83.80;;;;;;5069105;28;19929;-77
2022/10/25 08:01:52;;;;;;;;;;;12.70;83.80;;;;;;5051605;28;19939;-77
2022/10/25 08:04:18;;;;;;;;;;;12.80;83.80;;;;;;5063594;28;19926;-77
2022/10/25 08:06:43;;;;;;;;;;;12.80;83.60;;;;;;5049842;28;19925;-77
2022/10/25 08:09:09;;;;;;;;;;;12.90;83.70;;;;;;5050199;28;20433;-77
2022/10/25 08:11:34;;;;;;;;;;;13.00;83.60;;;;;;5049382;28;19928;-76
2022/10/25 08:14:00;;;;;;;;;;;13.10;83.60;;;;;;5051987;28;19921;-76
2022/10/25 08:16:25;;;;;;;;;;;13.20;83.50;;;;;;5048348;28;19924;-77
2022/10/25 08:18:51;;;;;;;;;;;13.30;83.50;;;;;;5053637;28;19921;-78
2022/10/25 08:21:16;;;;;;;;;;;13.40;83.40;;;;;;5049111;28;19916;-78
2022/10/25 08:23:42;;;;;;;;;;;13.50;83.30;;;;;;5043063;28;19919;-76
2022/10/25 08:26:07;;;;;;;;;;;13.60;83.20;;;;;;5043935;28;19936;-73
2022/10/25 08:28:37;;;;;;;;;;;13.70;83.10;;;;;;5038394;28;19925;-78
2022/10/25 08:31:03;;;;;;;;;;;13.80;83.10;;;;;;5054531;28;19938;-77
2022/10/25 08:33:29;;;;;;;;;;;13.90;83.00;;;;;;5052326;28;19967;-78
2022/10/25 08:35:54;;;;;;;;;;;14.00;82.90;;;;;;5052798;28;19905;-78
2022/10/25 08:38:20;;;;;;;;;;;14.10;82.90;;;;;;5050303;28;19931;-78
2022/10/25 08:41:05;;;;;;;;;;;14.20;82.80;;;;;;5037620;28;20389;-78
2022/10/25 08:43:33;;;;;;;;;;;14.30;82.60;;;;;;5053007;28;19968;-78
2022/10/25 08:46:00;;;;;;;;;;;14.40;82.50;;;;;;5056100;28;19908;-78
2022/10/25 08:48:27;;;;;;;;;;;14.50;82.50;;;;;;5067427;28;19925;-77
2022/10/25 08:50:54;;;;;;;;;;;14.60;82.40;;;;;;5052191;28;19995;-78
2022/10/25 08:53:24;;;;;;;;;;;14.70;82.30;;;;;;5052121;28;19976;-76
2022/10/25 08:55:50;;;;;;;;;;;14.70;82.20;;;;;;5047428;28;19921;-76
2022/10/25 08:58:23;;;;;;;;;;;14.80;82.20;;;;;;5048708;28;19924;-77
2022/10/25 09:00:49;;;;;;;;;;;14.90;82.10;;;;;;5065280;28;19925;-77
2022/10/25 09:03:15;;;;;;;;;;;15.00;82.10;;;;;;5062577;28;19967;-77
2022/10/25 09:05:59;;;;;;;;;;;15.00;82.00;;;;;;5052354;28;19917;-77
2022/10/25 09:08:29;;;;;;;;;;;15.10;82.00;;;;;;5051180;28;19943;-78
2022/10/25 09:11:13;;;;;;;;;;;15.20;81.90;;;;;;5047425;28;19918;-77
2022/10/25 09:13:38;;;;;;;;;;;15.20;81.80;;;;;;5049555;28;19929;-77
2022/10/25 09:16:17;;;;;;;;;;;15.20;81.70;;;;;;5042596;28;19917;-77
2022/10/25 09:18:49;;;;;;;;;;;15.30;81.80;;;;;;5067079;28;20123;-76
2022/10/25 09:21:17;;;;;;;;;;;15.30;81.70;;;;;;5063838;28;19932;-77
2022/10/25 09:23:46;;;;;;;;;;;15.40;81.70;;;;;;5054652;28;19988;-77
2022/10/25 09:26:31;;;;;;;;;;;15.40;81.70;;;;;;5064923;28;20035;-77
2022/10/25 09:28:59;;;;;;;;;;;15.50;81.70;;;;;;5040149;28;19917;-77
2022/10/25 09:31:24;;;;;;;;;;;15.50;81.70;;;;;;5032363;28;19931;-77
2022/10/25 09:33:52;;;;;;;;;;;15.50;81.60;;;;;;5050970;28;19972;-76
2022/10/25 09:36:17;;;;;;;;;;;15.60;81.60;;;;;;5066667;28;19928;-77
2022/10/25 09:38:44;;;;;;;;;;;15.60;81.50;;;;;;5053495;28;19925;-77
2022/10/25 09:41:30;;;;;;;;;;;15.70;81.50;;;;;;5034793;28;19925;-78
2022/10/25 09:44:14;;;;;;;;;;;15.70;81.40;;;;;;5050361;28;19973;-79
2022/10/25 09:46:41;;;;;;;;;;;15.80;81.40;;;;;;5049273;28;19923;-77
2022/10/25 09:49:06;;;;;;;;;;;15.80;81.30;;;;;;5052344;28;19966;-77
2022/10/25 09:51:36;;;;;;;;;;;15.80;81.30;;;;;;5047172;28;19917;-77
2022/10/25 09:54:03;;;;;;;;;;;15.90;81.30;;;;;;5065074;28;19944;-78
2022/10/25 09:56:29;;;;;;;;;;;15.90;81.20;;;;;;5053983;28;19925;-78
2022/10/25 09:58:55;;;;;;;;;;;15.90;81.20;;;;;;5064537;28;19947;-77
2022/10/25 10:01:27;;;;;;;;;;;16.00;81.20;;;;;;5045731;28;19924;-79
2022/10/25 10:03:53;;;;;;;;;;;16.00;81.20;;;;;;5034266;28;20472;-77
2022/10/25 10:06:30;;;;;;;;;;;16.10;81.30;;;;;;5049735;28;19917;-78
2022/10/25 10:08:57;;;;;;;;;;;16.20;81.20;;;;;;5048861;28;19984;-78
2022/10/25 10:11:23;;;;;;;;;;;16.40;81.20;;;;;;5058542;28;19925;-78
2022/10/25 10:13:52;;;;;;;;;;;16.50;81.00;;;;;;5043766;28;20301;-78
2022/10/25 10:16:19;;;;;;;;;;;16.60;80.80;;;;;;5045359;28;20050;-78
2022/10/25 10:18:45;;;;;;;;;;;16.80;80.80;;;;;;5050262;28;19971;-79
2022/10/25 10:21:12;;;;;;;;;;;16.90;80.60;;;;;;5045866;28;20348;-78
2022/10/25 10:23:46;;;;;;;;;;;17.00;80.50;;;;;;5057381;28;19996;-77
2022/10/25 10:26:28;;;;;;;;;;;17.10;80.40;;;;;;5047778;28;19949;-78
2022/10/25 10:29:02;;;;;;;;;;;17.20;80.30;;;;;;5048284;28;19921;-77
2022/10/25 10:31:48;;;;;;;;;;;17.30;80.20;;;;;;5041634;28;19979;-78
2022/10/25 10:34:23;;;;;;;;;;;17.40;80.10;;;;;;5035913;28;19948;-78
2022/10/25 10:37:01;;;;;;;;;;;17.60;80.00;;;;;;5061901;28;19921;-77
2022/10/25 10:39:27;;;;;;;;;;;17.70;79.80;;;;;;5043859;28;19920;-77
2022/10/25 10:42:12;;;;;;;;;;;17.90;79.70;;;;;;5042764;28;19999;-77
2022/10/25 10:44:38;;;;;;;;;;;18.00;79.40;;;;;;5062972;28;19967;-77
2022/10/25 10:47:10;;;;;;;;;;;18.00;79.30;;;;;;5047976;28;19917;-77
2022/10/25 10:49:36;;;;;;;;;;;18.00;79.30;;;;;;5041147;28;20040;-77
2022/10/25 10:52:02;;;;;;;;;;;18.00;79.20;;;;;;5047033;28;19921;-77
2022/10/25 10:54:32;;;;;;;;;;;18.00;79.10;;;;;;5035644;28;20583;-76
2022/10/25 10:56:58;;;;;;;;;;;18.00;79.20;;;;;;5040536;28;19917;-77
2022/10/25 10:59:31;;;;;;;;;;;18.00;79.20;;;;;;5027240;28;19975;-77
2022/10/25 11:01:57;;;;;;;;;;;17.90;79.20;;;;;;5042133;28;19929;-77
2022/10/25 11:04:22;;;;;;;;;;;17.90;79.30;;;;;;5032739;28;19955;-78
2022/10/25 11:06:48;;;;;;;;;;;17.90;79.30;;;;;;5044853;28;19917;-77
2022/10/25 11:09:19;;;;;;;;;;;18.00;79.40;;;;;;5049921;28;19925;-79
2022/10/25 11:11:44;;;;;;;;;;;18.10;79.40;;;;;;5039705;28;20271;-78
2022/10/25 11:14:11;;;;;;;;;;;18.30;79.40;;;;;;5037985;28;19928;-78
2022/10/25 11:16:49;;;;;;;;;;;18.50;79.20;;;;;;5038024;28;19917;-78
2022/10/25 11:19:24;;;;;;;;;;;18.70;79.10;;;;;;5032328;28;20405;-78
2022/10/25 11:21:52;;;;;;;;;;;18.90;78.80;;;;;;5044233;28;19926;-77
2022/10/25 11:24:24;;;;;;;;;;;19.10;78.60;;;;;;5039378;28;19917;-79
2022/10/25 11:26:52;;;;;;;;;;;19.30;78.40;;;;;;5038080;28;19925;-79
2022/10/25 11:29:22;;;;;;;;;;;19.60;78.20;;;;;;5044371;28;20393;-79
2022/10/25 11:31:47;;;;;;;;;;;19.80;77.80;;;;;;5024308;28;19925;-78
2022/10/25 11:34:21;;;;;;;;;;;20.00;77.50;;;;;;5028268;28;20702;-78
2022/10/25 11:36:53;;;;;;;;;;;20.10;77.20;;;;;;5038145;28;19925;-78
2022/10/25 11:39:37;;;;;;;;;;;20.10;77.10;;;;;;5042549;28;19931;-79
2022/10/25 11:42:21;;;;;;;;;;;20.10;77.00;;;;;;5044916;28;19913;-78
2022/10/25 11:44:50;;;;;;;;;;;20.20;77.20;;;;;;5055113;28;19925;-78
2022/10/25 11:47:16;;;;;;;;;;;20.30;77.10;;;;;;5035576;28;19917;-79
2022/10/25 11:50:00;;;;;;;;;;;20.50;77.10;;;;;;5041170;28;19913;-78
2022/10/25 11:52:29;;;;;;;;;;;20.70;76.80;;;;;;5039619;28;20625;-79
2022/10/25 11:55:13;;;;;;;;;;;20.90;76.50;;;;;;5029380;28;19917;-79
2022/10/25 11:57:47;;;;;;;;;;;21.10;76.30;;;;;;5037568;28;19921;-79
2022/10/25 12:00:17;;;;;;;;;;;21.30;76.10;;;;;;5040698;28;19998;-79
2022/10/25 12:02:43;;;;;;;;;;;21.60;75.90;;;;;;5046911;28;19928;-79
2022/10/25 12:05:12;;;;;;;;;;;21.70;75.70;;;;;;5049149;28;19921;-78
2022/10/25 12:07:47;;;;;;;;;;;21.80;75.40;;;;;;5049359;28;19984;-79
2022/10/25 12:10:31;;;;;;;;;;;21.90;75.20;;;;;;5044860;28;19940;-79
2022/10/25 12:12:58;;;;;;;;;;;22.10;75.10;;;;;;5032788;28;19924;-78
2022/10/25 12:15:26;;;;;;;;;;;22.20;74.90;;;;;;5047318;28;19942;-79
2022/10/25 12:17:52;;;;;;;;;;;22.30;74.70;;;;;;5041298;28;19920;-78
2022/10/25 12:20:21;;;;;;;;;;;22.50;74.60;;;;;;5046504;28;20431;-77
2022/10/25 12:22:47;;;;;;;;;;;22.60;74.50;;;;;;5046950;28;19925;-77
2022/10/25 12:25:23;;;;;;;;;;;22.70;74.40;;;;;;5047817;28;19994;-78
2022/10/25 12:27:49;;;;;;;;;;;22.80;74.20;;;;;;5045575;28;19920;-79
2022/10/25 12:30:15;;;;;;;;;;;22.90;74.00;;;;;;5042878;28;19921;-79
2022/10/25 12:32:45;;;;;;;;;;;23.10;74.00;;;;;;5039598;28;19936;-78
2022/10/25 12:35:17;;;;;;;;;;;23.20;74.00;;;;;;5010205;28;19917;-80
2022/10/25 12:37:49;;;;;;;;;;;23.40;73.80;;;;;;5034602;28;20511;-79
2022/10/25 12:40:15;;;;;;;;;;;23.50;73.60;;;;;;5044660;28;19924;-78
2022/10/25 12:42:45;;;;;;;;;;;23.60;73.40;;;;;;5063582;28;19928;-79
2022/10/25 12:45:17;;;;;;;;;;;23.80;73.30;;;;;;5045370;28;20008;-78
2022/10/25 12:47:52;;;;;;;;;;;23.90;73.20;;;;;;5039039;28;19921;-78
2022/10/25 12:50:19;;;;;;;;;;;24.00;73.00;;;;;;5043251;28;19925;-78
2022/10/25 12:53:04;;;;;;;;;;;24.10;72.80;;;;;;5044087;28;19960;-79
2022/10/25 12:55:35;;;;;;;;;;;24.10;72.70;;;;;;5042604;28;19918;-78
2022/10/25 12:58:04;;;;;;;;;;;24.00;72.60;;;;;;5042742;28;20374;-79
2022/10/25 13:00:38;;;;;;;;;;;24.00;72.70;;;;;;5047036;28;19933;-78
2022/10/25 13:03:13;;;;;;;;;;;23.90;72.70;;;;;;5050631;28;20004;-78
2022/10/25 13:05:41;;;;;;;;;;;23.90;72.70;;;;;;5039288;28;19932;-79
2022/10/25 13:08:07;;;;;;;;;;;23.90;72.60;;;;;;5043279;28;20347;-80
2022/10/25 13:10:38;;;;;;;;;;;23.80;72.60;;;;;;5038487;28;20433;-78
2022/10/25 13:13:04;;;;;;;;;;;23.80;72.70;;;;;;5058946;28;19924;-79
2022/10/25 13:15:37;;;;;;;;;;;23.80;72.70;;;;;;5060935;28;19948;-79
2022/10/25 13:18:04;;;;;;;;;;;23.80;72.70;;;;;;5063373;28;19917;-79
2022/10/25 13:20:35;;;;;;;;;;;23.80;72.60;;;;;;5047089;28;19942;-78
2022/10/25 13:23:16;;;;;;;;;;;23.80;72.60;;;;;;5043485;28;19916;-77
2022/10/25 13:25:47;;;;;;;;;;;23.70;72.60;;;;;;5061850;28;19982;-79
2022/10/25 13:28:12;;;;;;;;;;;23.70;72.60;;;;;;5041494;28;19921;-78
2022/10/25 13:30:38;;;;;;;;;;;23.60;72.60;;;;;;5045842;28;19967;-78
2022/10/25 13:33:21;;;;;;;;;;;23.50;72.70;;;;;;5048738;28;19937;-77
2022/10/25 13:35:50;;;;;;;;;;;23.50;72.80;;;;;;5045544;28;19929;-79
2022/10/25 13:38:22;;;;;;;;;;;23.40;72.50;;;;;;5043945;28;19935;-78
2022/10/25 13:41:14;;;;;;;;;;;23.30;72.40;;;;;;5037754;28;19920;-80
2022/10/25 13:43:58;;;;;;;;;;;23.20;72.50;;;;;;5036390;28;19928;-79
2022/10/25 13:46:36;;;;;;;;;;;23.10;72.70;;;;;;5043006;28;19936;-79
2022/10/25 13:49:03;;;;;;;;;;;23.00;72.70;;;;;;5041631;28;20092;-77
2022/10/25 13:51:28;;;;;;;;;;;22.90;72.80;;;;;;5040715;28;22143;-78
2022/10/25 13:53:54;;;;;;;;;;;22.90;72.80;;;;;;5044729;28;19948;-77
2022/10/25 13:56:22;;;;;;;;;;;22.80;72.80;;;;;;5039223;28;19925;-78
2022/10/25 13:58:49;;;;;;;;;;;22.70;73.50;;;;;;5047354;28;19929;-78
2022/10/25 14:01:14;;;;;;;;;;;22.60;72.90;;;;;;5044633;28;19936;-78
2022/10/25 14:03:59;;;;;;;;;;;22.60;73.00;;;;;;5044706;28;19917;-78
2022/10/25 14:06:28;;;;;;;;;;;22.50;73.10;;;;;;5043270;28;20664;-79
2022/10/25 14:08:55;;;;;;;;;;;22.50;73.10;;;;;;5040092;28;20457;-78
2022/10/25 14:11:23;;;;;;;;;;;22.50;73.20;;;;;;5027505;28;19988;-78
2022/10/25 14:13:53;;;;;;;;;;;22.40;73.20;;;;;;5040395;28;19925;-78
2022/10/25 14:16:23;;;;;;;;;;;22.40;73.20;;;;;;5036439;28;19921;-78
2022/10/25 14:18:49;;;;;;;;;;;22.30;73.30;;;;;;5057462;28;19932;-78
2022/10/25 14:21:14;;;;;;;;;;;22.30;73.20;;;;;;5043094;28;19974;-79
2022/10/25 14:23:40;;;;;;;;;;;22.30;73.10;;;;;;5042181;28;19920;-78